Flight Track Log - Related Links

Times and Time Zones

All times are in EDT time to prevent confusion due to time zone crossing. See the AWE1092 flight status page for this flight to view local times or setup timezone preferences in your user account.

Time Position Orientation Groundspeed Altitude Reporting Facility
EDT Latitude Longitude Course Direction KTS MPH feet Rate Location/Type
Wed 07:01:03 AM 42.9500 -71.4333 273° West 153 176 1,300  Level KA90
Wed 07:02:09 AM 43.0000 -71.4667 334° Northwest 190 219 4,200 2,794 Climbing KA90
Wed 07:03:00 AM 42.9390 -71.8338 283° West  Level FlightAware Approximate
Wed 07:03:14 AM 43.0303 -71.5228 306° West 196 226 7,400  Level Boston Center
Wed 07:04:00 AM 42.9500 -71.9665 270° West  Level FlightAware Approximate
Wed 07:04:15 AM 43.0600 -71.5961 299° West 210 242 10,100  Level Boston Center
Wed 07:05:00 AM 42.9501 -72.1008 270° West  Level FlightAware Approximate
Wed 07:05:15 AM 43.0628 -71.7014 272° West 249 287 11,800  Level Boston Center
Wed 07:06:00 AM 42.9508 -72.2352 273° West  Level FlightAware Approximate
Wed 07:06:13 AM 43.0572 -71.8206 266° West 311 358 15,000  Level Boston Center
Wed 07:07:15 AM 43.0536 -71.9372 268° West 318 366 17,900 2,439 Climbing Boston Center
Wed 07:08:16 AM 43.0478 -72.0594 266° West 318 366 20,000 2,150 Climbing Boston Center
Wed 07:09:15 AM 43.0461 -72.1844 269° West 323 372 22,200 1,513 Climbing Boston Center
Wed 07:10:15 AM 43.0464 -72.3181 270° West 336 387 23,000 1,250 Climbing Boston Center
Wed 07:11:15 AM 43.0422 -72.4572 268° West 362 417 24,700 1,678 Climbing Boston Center
Wed 07:12:13 AM 43.0381 -72.6019 268° West 374 430 26,300 1,678 Climbing Boston Center
Wed 07:13:13 AM 43.0128 -72.7325 255° West 398 458 28,000 829 Climbing Boston Center
Wed 07:14:16 AM 42.9664 -72.8600 244° Southwest 376 433 28,000  Level Boston Center
Wed 07:15:13 AM 42.9200 -72.9872 244° Southwest 376 433 28,000  Level Boston Center
Wed 07:16:13 AM 42.8736 -73.1200 245° Southwest 371 427 28,000  Level Boston Center
Wed 07:17:16 AM 42.8269 -73.2469 243° Southwest 371 427 28,000  Level Boston Center
Wed 07:18:14 AM 42.7800 -73.3736 243° Southwest 371 427 28,000  Level Boston Center
Wed 07:19:14 AM 42.7394 -73.4861 244° Southwest 371 427 28,000  Level Boston Center
Wed 07:20:14 AM 42.6925 -73.6122 243° Southwest 371 427 28,000 -454 Level Boston Center
Wed 07:21:13 AM 42.6431 -73.7328 241° Southwest 371 427 27,100 -958 Descending Boston Center
Wed 07:22:13 AM 42.5978 -73.8589 244° Southwest 371 427 26,100 -545 Descending Boston Center
Wed 07:23:14 AM 42.5525 -73.9817 243° Southwest 371 427 26,000 -49 Descending Boston Center
Wed 07:24:15 AM 42.5069 -74.1075 244° Southwest 371 427 26,000  Level Boston Center
Wed 07:25:15 AM 42.4592 -74.2300 242° Southwest 371 427 26,000  Level Boston Center
Wed 07:26:13 AM 42.4133 -74.3522 243° Southwest 366 421 26,000  Level Boston Center
Wed 07:27:13 AM 42.3633 -74.4744 241° Southwest 366 421 26,000 -266 Level Boston Center
Wed 07:29:36 AM 42.2147 -74.7497 234° Southwest 371 427 25,100 -746 Descending New York Center
Wed 07:30:34 AM 42.1467 -74.8547 229° Southwest 384 442 23,500 -1,525 Descending New York Center
Wed 07:31:34 AM 42.0853 -74.9458 228° Southwest 378 435 22,100 -1,488 Descending New York Center
Wed 07:32:35 AM 42.0211 -75.0478 230° Southwest 373 429 20,500 -1,525 Descending New York Center
Wed 07:33:36 AM 41.9511 -75.1464 226° Southwest 357 411 19,000 -756 Descending New York Center
Wed 07:34:34 AM 41.8672 -75.2161 212° Southwest 352 405 19,000 -254 Level New York Center
Wed 07:35:34 AM 41.7836 -75.2828 211° Southwest 358 412 18,500 -843 Descending New York Center
Wed 07:36:35 AM 41.7061 -75.3442 211° Southwest 358 412 17,300 -1,388 Descending New York Center
Wed 07:37:35 AM 41.6267 -75.4108 212° Southwest 349 402 15,700 -1,736 Descending New York Center
Wed 07:38:36 AM 41.5383 -75.4797 210° Southwest 349 402 13,800 -1,765 Descending New York Center
Wed 07:39:34 AM 41.4589 -75.5433 211° Southwest 349 402 12,200 -857 Descending New York Center
Wed 07:40:35 AM 41.3814 -75.6042 211° Southwest 344 396 12,100 -50 Descending New York Center
Wed 07:41:35 AM 41.3083 -75.6625 211° Southwest 344 396 12,100 -248 Level New York Center
Wed 07:42:36 AM 41.2183 -75.6697 183° South 327 376 11,600 -605 Descending New York Center
Wed 07:43:34 AM 41.1133 -75.6372 167° South 345 397 10,900 -655 Descending New York Center
Wed 07:44:35 AM 41.0189 -75.6058 166° South 351 404 10,300 -393 Descending New York Center
Wed 07:45:36 AM 40.9261 -75.5800 168° South 351 404 10,100 -99 Descending New York Center
Wed 07:46:36 AM 40.8336 -75.5514 167° South 351 404 10,100  Level New York Center
Wed 07:47:34 AM 40.7617 -75.5300 167° South 326 375 10,100  Level New York Center
Wed 07:48:34 AM 40.6731 -75.5019 166° South 321 369 10,100 -66 Level New York Center
Wed 07:49:05 AM 40.6200 -75.4850 166° South 311 358 10,000 -118 Descending FAA TRACON SMA TRACON (SMA)
Wed 07:49:25 AM 40.5942 -75.4778 168° South 311 358 10,000  Level FAA TRACON SMA TRACON (SMA)
Wed 07:49:45 AM 40.5683 -75.4692 166° South 311 358 10,000  Level FAA TRACON SMA TRACON (SMA)
Wed 07:50:05 AM 40.5372 -75.4589 166° South 311 358 10,000  Level FAA TRACON SMA TRACON (SMA)
Wed 07:50:25 AM 40.5100 -75.4517 169° South 311 358 10,000  Level FAA TRACON SMA TRACON (SMA)
Wed 07:50:45 AM 40.4839 -75.4433 166° South 312 359 10,000 -150 Level FAA TRACON SMA TRACON (SMA)
Wed 07:51:05 AM 40.4511 -75.4328 166° South 314 361 9,900 -600 Descending FAA TRACON SMA TRACON (SMA)
Wed 07:51:25 AM 40.4258 -75.4197 159° South 325 374 9,600 -1,050 Descending FAA TRACON SMA TRACON (SMA)
Wed 07:51:45 AM 40.4017 -75.4053 156° South 311 358 9,200 -1,350 Descending FAA TRACON SMA TRACON (SMA)
Wed 07:52:05 AM 40.3728 -75.3878 155° Southeast 307 353 8,700 -1,500 Descending FAA TRACON SMA TRACON (SMA)
Wed 07:52:25 AM 40.3478 -75.3739 157° South 303 349 8,200 -1,350 Descending FAA TRACON SMA TRACON (SMA)
Wed 07:52:45 AM 40.3244 -75.3597 155° Southeast 302 348 7,800 -1,500 Descending FAA TRACON SMA TRACON (SMA)
Wed 07:53:05 AM 40.2958 -75.3436 157° South 295 339 7,200 -1,200 Descending FAA TRACON SMA TRACON (SMA)
Wed 07:53:25 AM 40.2733 -75.3303 156° South 294 338 7,000 -300 Descending FAA TRACON SMA TRACON (SMA)
Wed 07:53:45 AM 40.2514 -75.3169 155° Southeast 294 338 7,000  Level FAA TRACON SMA TRACON (SMA)
Wed 07:54:05 AM 40.2208 -75.3003 157° South 294 338 7,000  Level FAA TRACON SMA TRACON (SMA)
Wed 07:54:25 AM 40.1981 -75.2869 156° South 293 337 7,000  Level FAA TRACON SMA TRACON (SMA)
Wed 07:54:45 AM 40.1756 -75.2742 157° South 290 334 7,000 -150 Level FAA TRACON SMA TRACON (SMA)
Wed 07:55:05 AM 40.1467 -75.2575 156° South 290 334 6,900 -300 Descending FAA TRACON SMA TRACON (SMA)
Wed 07:55:25 AM 40.1242 -75.2442 156° South 290 334 6,800 -439 Descending FAA TRACON SMA TRACON (SMA)
Wed 07:55:46 AM 40.1050 -75.2281 147° Southeast 292 336 6,600 -600 Descending FAA TRACON SMA TRACON (SMA)
Wed 07:56:05 AM 40.0814 -75.1994 137° Southeast 274 315 6,400 -615 Descending FAA TRACON SMA TRACON (SMA)
Wed 07:56:25 AM 40.0650 -75.1783 135° Southeast 265 305 6,200 -600 Descending FAA TRACON SMA TRACON (SMA)
Wed 07:56:45 AM 40.0492 -75.1581 136° Southeast 258 297 6,000 -300 Descending FAA TRACON SMA TRACON (SMA)
Wed 07:57:05 AM 40.0336 -75.1386 136° Southeast 249 287 6,000 -150 Level FAA TRACON SMA TRACON (SMA)
Wed 07:57:25 AM 40.0156 -75.1164 137° Southeast 229 264 5,900 -750 Descending FAA TRACON SMA TRACON (SMA)
Wed 07:57:45 AM 40.0036 -75.0983 131° Southeast 224 258 5,500 -1,200 Descending FAA TRACON SMA TRACON (SMA)
Wed 07:58:05 AM 39.9961 -75.0742 112° Southeast 230 265 5,100 -1,050 Descending FAA TRACON SMA TRACON (SMA)
Wed 07:58:25 AM 40.0000 -75.0439 80° East 218 251 4,800 -1,050 Descending FAA TRACON SMA TRACON (SMA)
Wed 07:58:45 AM 39.9956 -75.0200 104° East 229 264 4,400 -1,200 Descending FAA TRACON SMA TRACON (SMA)
Wed 07:59:05 AM 39.9756 -75.0050 150° Southeast 220 253 4,000 -750 Descending FAA TRACON SMA TRACON (SMA)
Wed 07:59:25 AM 39.9592 -74.9986 163° South 196 226 3,900 -600 Descending FAA TRACON SMA TRACON (SMA)
Wed 07:59:45 AM 39.9450 -74.9997 183° South 183 211 3,600 -1,171 Descending FAA TRACON SMA TRACON (SMA)
Wed 08:00:06 AM 39.9339 -75.0125 221° Southwest 167 192 3,100 -1,800 Descending FAA TRACON SMA TRACON (SMA)
Wed 08:00:25 AM 39.9206 -75.0294 224° Southwest 173 199 2,400 -2,211 Descending FAA TRACON SMA TRACON (SMA)

Login

Don't have an account? Register now (free) for customized features, flight alerts, and more!